createdAt,value
2018-12-07T00:01:40.729Z,92462.52
2018-12-07T00:04:10.033Z,92474.06
2018-12-07T00:06:39.371Z,92443.65
2018-12-07T00:09:08.590Z,92440.77
2018-12-07T00:11:37.822Z,92445.48
2018-12-07T00:14:07.082Z,92407.20
2018-12-07T00:16:36.376Z,92482.72
2018-12-07T00:19:05.640Z,92481.14
2018-12-07T00:21:34.849Z,92488.74
2018-12-07T00:24:04.186Z,92481.66
2018-12-07T00:26:33.488Z,92454.39
2018-12-07T00:29:02.721Z,92455.18
2018-12-07T00:31:31.967Z,92417.70
2018-12-07T00:34:01.286Z,92430.53
2018-12-07T00:36:30.570Z,92461.47
2018-12-07T00:39:00.720Z,92462.52
2018-12-07T00:41:29.997Z,92494.81
2018-12-07T00:43:59.239Z,92521.30
2018-12-07T00:46:28.458Z,92519.20
2018-12-07T00:48:58.024Z,92523.92
2018-12-07T00:51:27.269Z,92494.81
2018-12-07T00:53:57.933Z,92494.55
2018-12-07T00:56:27.201Z,92479.05
2018-12-07T00:58:57.279Z,92492.94
2018-12-07T01:01:26.638Z,92493.76
2018-12-07T01:03:55.865Z,92528.12
2018-12-07T01:06:25.101Z,92488.48
2018-12-07T01:08:54.347Z,92521.30
2018-12-07T01:11:23.664Z,92513.69
2018-12-07T01:13:53.051Z,92535.72
2018-12-07T01:16:22.301Z,92544.38
2018-12-07T01:18:51.624Z,92548.58
2018-12-07T01:21:20.859Z,92549.89
2018-12-07T01:23:50.115Z,92539.13
2018-12-07T01:26:19.398Z,92556.97
2018-12-07T01:28:48.610Z,92543.33
2018-12-07T01:31:18.244Z,92568.25
2018-12-07T01:33:48.349Z,92548.84
2018-12-07T01:36:17.745Z,92542.02
2018-12-07T01:38:47.034Z,92545.16
2018-12-07T01:41:16.273Z,92567.20
2018-12-07T01:43:45.593Z,92523.91
2018-12-07T01:46:14.854Z,92479.03
2018-12-07T01:48:45.350Z,92517.35
2018-12-07T01:51:14.570Z,92523.13
2018-12-07T01:53:43.781Z,92504.23
2018-12-07T01:56:12.991Z,92461.73
2018-12-07T01:58:42.261Z,92474.84
2018-12-07T02:01:13.144Z,92477.98
2018-12-07T02:03:42.342Z,92434.20
2018-12-07T02:06:11.551Z,92448.36
2018-12-07T02:08:42.060Z,92435.51
2018-12-07T02:11:11.626Z,92439.97
2018-12-07T02:13:40.896Z,92436.81
2018-12-07T02:16:12.075Z,92441.54
2018-12-07T02:18:41.329Z,92447.05
2018-12-07T02:21:10.984Z,92389.61
2018-12-07T02:23:41.539Z,92394.59
2018-12-07T02:26:10.780Z,92410.34
2018-12-07T02:28:40.048Z,92388.04
2018-12-07T02:31:09.289Z,92362.09
2018-12-07T02:33:38.493Z,92386.20
2018-12-07T02:36:07.721Z,92395.89
2018-12-07T02:38:37.306Z,92379.91
2018-12-07T02:41:07.356Z,92384.63
2018-12-07T02:43:37.367Z,92348.72
2018-12-07T02:46:06.571Z,92336.67
2018-12-07T02:48:35.795Z,92388.03
2018-12-07T02:51:05.028Z,92384.63
2018-12-07T02:53:34.390Z,92355.80
2018-12-07T02:56:03.646Z,92365.50
2018-12-07T02:58:32.901Z,92372.05
2018-12-07T03:01:02.129Z,92374.14
2018-12-07T03:03:31.502Z,92341.13
2018-12-07T03:06:00.784Z,92319.12
2018-12-07T03:08:30.012Z,92322.00
2018-12-07T03:10:59.275Z,92330.91
2018-12-07T03:13:28.493Z,92315.97
2018-12-07T03:15:58.034Z,92282.68
2018-12-07T03:18:31.881Z,92266.97
2018-12-07T03:21:01.273Z,92236.86
2018-12-07T03:23:30.561Z,92249.16
2018-12-07T03:26:00.466Z,92260.42
2018-12-07T03:28:29.686Z,92246.80
2018-12-07T03:30:58.930Z,92236.59
2018-12-07T03:33:28.352Z,92217.48
2018-12-07T03:35:58.138Z,92225.07
2018-12-07T03:38:27.856Z,92151.23
2018-12-07T03:40:57.682Z,92161.70
2018-12-07T03:43:27.004Z,92183.68
2018-12-07T03:45:56.731Z,92142.86
2018-12-07T03:48:26.840Z,92169.02
2018-12-07T03:50:56.120Z,92179.75
2018-12-07T03:53:25.399Z,92170.86
2018-12-07T03:55:54.948Z,92164.84
2018-12-07T03:58:24.182Z,92170.07
2018-12-07T04:00:53.734Z,92158.03
2018-12-07T04:03:24.286Z,92163.53
2018-12-07T04:05:53.542Z,92164.84
2018-12-07T04:08:22.820Z,92157.25
2018-12-07T04:10:52.056Z,92125.06
2018-12-07T04:13:22.042Z,92115.12
2018-12-07T04:15:51.261Z,92106.22
2018-12-07T04:18:20.745Z,92086.08
2018-12-07T04:20:50.044Z,92101.52
2018-12-07T04:23:19.275Z,92094.71
2018-12-07T04:25:48.496Z,92087.65
2018-12-07T04:28:18.176Z,92086.57
2018-12-07T04:30:47.880Z,92073.49
2018-12-07T04:33:17.054Z,92083.95
2018-12-07T04:35:46.445Z,92074.02
2018-12-07T04:38:15.679Z,92067.22
2018-12-07T04:40:44.893Z,92061.98
2018-12-07T04:43:14.124Z,92046.30
2018-12-07T04:45:43.335Z,92075.06
2018-12-07T04:48:12.569Z,92059.11
2018-12-07T04:50:42.315Z,92111.20
2018-12-07T04:53:12.030Z,92114.08
2018-12-07T04:55:41.344Z,92085.53
2018-12-07T04:58:10.550Z,92054.66
2018-12-07T05:00:39.753Z,92083.17
2018-12-07T05:03:09.939Z,92092.62
2018-12-07T05:05:39.176Z,92120.35
2018-12-07T05:08:08.405Z,92093.41
2018-12-07T05:10:37.698Z,92114.34
2018-12-07T05:13:06.972Z,92104.92
2018-12-07T05:15:36.459Z,92099.69
2018-12-07T05:18:05.665Z,92105.17
2018-12-07T05:20:34.929Z,92101.25
2018-12-07T05:23:04.158Z,92150.70
2018-12-07T05:25:33.896Z,92140.76
2018-12-07T05:28:03.168Z,92129.77
2018-12-07T05:30:33.115Z,92119.83
2018-12-07T05:33:03.183Z,92121.66
2018-12-07T05:35:33.001Z,92119.56
2018-12-07T05:38:02.226Z,92113.55
2018-12-07T05:40:31.446Z,92126.63
2018-12-07T05:43:01.063Z,92135.27
2018-12-07T05:45:30.283Z,92140.50
2018-12-07T05:47:59.834Z,92140.50
2018-12-07T05:50:29.811Z,92146.52
2018-12-07T05:52:59.122Z,92193.10
2018-12-07T05:55:28.451Z,92153.84
2018-12-07T05:57:57.671Z,92163.00
2018-12-07T06:00:26.874Z,92172.95
2018-12-07T06:02:56.187Z,92144.42
2018-12-07T06:05:25.462Z,92157.51
2018-12-07T06:07:54.679Z,92171.64
2018-12-07T06:10:23.952Z,92207.27
2018-12-07T06:12:53.797Z,92172.69
2018-12-07T06:15:23.027Z,92169.81
2018-12-07T06:17:52.275Z,92203.84
2018-12-07T06:20:21.751Z,92195.45
2018-12-07T06:22:51.147Z,92196.50
2018-12-07T06:25:22.250Z,92206.22
2018-12-07T06:27:51.614Z,92203.84
2018-12-07T06:30:20.857Z,92191.02
2018-12-07T06:32:50.106Z,92198.86
2018-12-07T06:35:19.608Z,92169.81
2018-12-07T06:37:48.895Z,92207.23
2018-12-07T06:40:18.131Z,92203.05
2018-12-07T06:42:47.932Z,92205.93
2018-12-07T06:45:17.243Z,92211.45
2018-12-07T06:47:46.516Z,92218.52
2018-12-07T06:50:15.923Z,92233.19
2018-12-07T06:52:45.164Z,92216.95
2018-12-07T06:55:14.770Z,92192.31
2018-12-07T06:57:44.005Z,92209.10
2018-12-07T07:00:13.248Z,92225.06
2018-12-07T07:02:42.496Z,92209.07
2018-12-07T07:05:11.746Z,92214.86
2018-12-07T07:07:40.944Z,92234.49
2018-12-07T07:10:11.073Z,92203.83
2018-12-07T07:12:40.286Z,92197.29
2018-12-07T07:15:09.593Z,92209.33
2018-12-07T07:17:38.793Z,92219.83
2018-12-07T07:20:08.185Z,92244.44
2018-12-07T07:22:37.414Z,92222.71
2018-12-07T07:25:06.696Z,92240.78
2018-12-07T07:27:36.838Z,92279.53
2018-12-07T07:30:08.229Z,92295.77
2018-12-07T07:32:37.468Z,92290.01
2018-12-07T07:35:07.080Z,92248.11
2018-12-07T07:37:36.306Z,92293.67
2018-12-07T07:40:05.576Z,92290.01
2018-12-07T07:42:34.793Z,92317.25
2018-12-07T07:45:04.343Z,92316.46
2018-12-07T07:47:33.556Z,92299.96
2018-12-07T07:50:03.459Z,92319.34
2018-12-07T07:52:32.945Z,92295.24
2018-12-07T07:55:02.271Z,92323.01
2018-12-07T07:57:31.489Z,92356.05
2018-12-07T08:00:00.694Z,92332.99
2018-12-07T08:02:29.911Z,92315.41
2018-12-07T08:04:59.157Z,92372.82
2018-12-07T08:07:28.404Z,92355.00
2018-12-07T08:09:57.630Z,92378.06
2018-12-07T08:12:26.934Z,92378.33
2018-12-07T08:14:56.130Z,92384.09
2018-12-07T08:17:25.324Z,92350.81
2018-12-07T08:19:54.519Z,92374.66
2018-12-07T08:22:24.785Z,92359.72
2018-12-07T08:24:54.010Z,92348.97
2018-12-07T08:27:23.705Z,92284.17
2018-12-07T08:29:52.951Z,92335.35
2018-12-07T08:32:22.169Z,92372.56
2018-12-07T08:34:51.388Z,92399.55
2018-12-07T08:37:20.752Z,92404.00
2018-12-07T08:39:50.018Z,92406.37
2018-12-07T08:42:19.368Z,92406.11
2018-12-07T08:44:48.579Z,92443.09
2018-12-07T08:47:17.798Z,92463.02
2018-12-07T08:49:52.149Z,92437.59
2018-12-07T08:52:21.367Z,92421.56
2018-12-07T08:54:50.583Z,92403.74
2018-12-07T08:57:19.933Z,92371.77
2018-12-07T08:59:49.529Z,92424.72
2018-12-07T09:02:19.388Z,92391.95
2018-12-07T09:04:48.928Z,92464.06
2018-12-07T09:07:18.154Z,92429.69
2018-12-07T09:09:48.121Z,92408.98
2018-12-07T09:12:18.062Z,92482.16
2018-12-07T09:14:47.307Z,92442.57
2018-12-07T09:17:16.828Z,92455.94
2018-12-07T09:19:46.329Z,92466.69
2018-12-07T09:22:15.568Z,92518.88
2018-12-07T09:24:45.747Z,92490.02
2018-12-07T09:27:15.099Z,92479.27
2018-12-07T09:29:46.310Z,92465.38
2018-12-07T09:32:15.545Z,92465.11
2018-12-07T09:34:44.821Z,92482.41
2018-12-07T09:37:14.649Z,92459.34
2018-12-07T09:39:43.920Z,92439.42
2018-12-07T09:42:13.766Z,92457.97
2018-12-07T09:44:43.813Z,92471.41
2018-12-07T09:47:13.305Z,92535.39
2018-12-07T09:49:42.542Z,92501.83
2018-12-07T09:52:12.258Z,92483.47
2018-12-07T09:54:41.461Z,92464.33
2018-12-07T09:57:11.426Z,92460.39
2018-12-07T09:59:41.212Z,92456.98
2018-12-07T10:02:10.396Z,92452.78
2018-12-07T10:04:39.605Z,92446.23
2018-12-07T10:07:08.868Z,92431.00
2018-12-07T10:09:38.095Z,92488.45
2018-12-07T10:12:07.531Z,92490.28
2018-12-07T10:14:36.761Z,92469.05
2018-12-07T10:17:07.569Z,92470.87
2018-12-07T10:19:36.823Z,92471.40
2018-12-07T10:22:06.027Z,92464.58
2018-12-07T10:24:35.334Z,92472.19
2018-12-07T10:27:06.967Z,92464.58
2018-12-07T10:29:36.529Z,92468.52
2018-12-07T10:32:06.412Z,92473.49
2018-12-07T10:34:35.718Z,92461.17
2018-12-07T10:37:04.979Z,92453.31
2018-12-07T10:39:34.291Z,92461.70
2018-12-07T10:42:03.517Z,92450.42
2018-12-07T10:44:32.737Z,92451.73
2018-12-07T10:47:01.958Z,92443.61
2018-12-07T10:49:31.193Z,92445.19
2018-12-07T10:52:00.401Z,92507.85
2018-12-07T10:54:30.643Z,92491.33
2018-12-07T10:56:59.869Z,92479.53
2018-12-07T10:59:29.115Z,92504.96
2018-12-07T11:02:03.734Z,92512.57
2018-12-07T11:04:38.248Z,92491.06
2018-12-07T11:07:12.806Z,92480.58
2018-12-07T11:09:48.043Z,92470.87
2018-12-07T11:12:22.487Z,92468.25
2018-12-07T11:14:56.889Z,92482.67
2018-12-07T11:17:32.224Z,92509.16
2018-12-07T11:20:06.847Z,92546.41
2018-12-07T11:22:41.279Z,92548.80
2018-12-07T11:25:15.978Z,92549.81
2018-12-07T11:27:50.580Z,92545.36
2018-12-07T11:30:25.243Z,92559.03
2018-12-07T11:32:59.885Z,92568.47
2018-12-07T11:35:32.175Z,92585.26
2018-12-07T11:38:02.017Z,92620.69
2018-12-07T11:40:32.009Z,92651.40
2018-12-07T11:43:01.264Z,92677.41
2018-12-07T11:45:30.548Z,92634.34
2018-12-07T11:48:00.686Z,92624.89
2018-12-07T11:50:29.948Z,92640.89
2018-12-07T11:53:00.122Z,92707.87
2018-12-07T11:55:29.343Z,92742.53
2018-12-07T11:57:58.596Z,92783.00
2018-12-07T12:00:27.803Z,92792.47
2018-12-07T12:02:57.004Z,92811.91
2018-12-07T12:05:26.553Z,92736.22
2018-12-07T12:07:56.240Z,92666.09
2018-12-07T12:10:25.450Z,92615.69
2018-12-07T12:12:54.701Z,92578.17
2018-12-07T12:15:23.930Z,92575.81
2018-12-07T12:17:53.163Z,92559.52
2018-12-07T12:20:22.768Z,92567.15
2018-12-07T12:22:52.001Z,92557.94
2018-12-07T12:25:21.240Z,92542.47
2018-12-07T12:27:50.617Z,92583.68
2018-12-07T12:30:19.867Z,92561.09
2018-12-07T12:32:49.128Z,92567.64
2018-12-07T12:35:19.049Z,92569.25
2018-12-07T12:37:48.344Z,92588.41
2018-12-07T12:40:17.584Z,92564.53
2018-12-07T12:42:46.786Z,92565.02
2018-12-07T12:45:16.496Z,92551.65
2018-12-07T12:47:45.745Z,92552.42
2018-12-07T12:50:20.406Z,92546.66
2018-12-07T12:52:49.664Z,92547.19
2018-12-07T12:55:18.906Z,92535.64
2018-12-07T12:57:48.529Z,92644.30
2018-12-07T13:00:18.675Z,92616.22
2018-12-07T13:02:48.513Z,92607.56
2018-12-07T13:05:17.729Z,92569.25
2018-12-07T13:07:47.712Z,92564.27
2018-12-07T13:10:17.060Z,92585.78
2018-12-07T13:12:46.346Z,92614.38
2018-12-07T13:15:16.075Z,92608.87
2018-12-07T13:17:45.621Z,92569.25
2018-12-07T13:20:14.835Z,92562.40
2018-12-07T13:22:44.317Z,92539.84
2018-12-07T13:25:13.542Z,92513.88
2018-12-07T13:27:42.915Z,92531.45
2018-12-07T13:30:12.800Z,92518.59
2018-12-07T13:32:42.682Z,92513.61
2018-12-07T13:35:11.894Z,92497.35
2018-12-07T13:37:41.172Z,92500.76
2018-12-07T13:40:11.028Z,92492.89
2018-12-07T13:42:40.362Z,92487.91
2018-12-07T13:45:09.727Z,92490.27
2018-12-07T13:47:39.309Z,92554.78
2018-12-07T13:50:14.221Z,92514.39
2018-12-07T13:52:43.726Z,92497.35
2018-12-07T13:55:13.785Z,92499.45
2018-12-07T13:57:43.017Z,92481.61
2018-12-07T14:00:12.436Z,92491.58
2018-12-07T14:02:41.750Z,92499.18
2018-12-07T14:05:11.091Z,92471.91
2018-12-07T14:07:40.468Z,92475.84
2018-12-07T14:10:10.026Z,92457.73
2018-12-07T14:12:39.497Z,92451.43
2018-12-07T14:15:08.932Z,92439.11
2018-12-07T14:17:38.341Z,92451.69
2018-12-07T14:20:08.537Z,92441.20
2018-12-07T14:22:38.096Z,92459.83
2018-12-07T14:25:08.027Z,92470.08
2018-12-07T14:27:38.168Z,92445.14
2018-12-07T14:30:09.268Z,92436.23
2018-12-07T14:32:40.439Z,92451.43
2018-12-07T14:35:10.246Z,92432.30
2018-12-07T14:37:39.707Z,92465.88
2018-12-07T14:40:09.725Z,92440.94
2018-12-07T14:42:39.177Z,92422.07
2018-12-07T14:45:08.530Z,92471.39
2018-12-07T14:47:38.782Z,92449.85
2018-12-07T14:50:08.807Z,92424.95
2018-12-07T14:52:38.178Z,92416.30
2018-12-07T14:55:07.473Z,92440.42
2018-12-07T14:57:36.800Z,92430.45
2018-12-07T15:00:07.320Z,92415.25
2018-12-07T15:02:38.564Z,92473.48
2018-12-07T15:05:09.445Z,92441.47
2018-12-07T15:07:41.193Z,92450.64
2018-12-07T15:10:10.575Z,92414.47
2018-12-07T15:12:47.328Z,92397.17
2018-12-07T15:15:16.689Z,92391.14
2018-12-07T15:17:49.230Z,92406.34
2018-12-07T15:20:18.697Z,92403.45
2018-12-07T15:22:48.493Z,92471.13
2018-12-07T15:25:20.033Z,92446.71
2018-12-07T15:27:49.688Z,92439.37
2018-12-07T15:30:19.280Z,92447.75
2018-12-07T15:32:49.374Z,92359.82
2018-12-07T15:35:19.693Z,92434.39
2018-12-07T15:37:49.040Z,92406.61
2018-12-07T15:40:18.556Z,92459.03
2018-12-07T15:42:49.110Z,92411.32
2018-12-07T15:45:18.456Z,92431.50
2018-12-07T15:47:48.333Z,92412.37
2018-12-07T15:50:24.885Z,92394.02
2018-12-07T15:52:49.260Z,92394.02
2018-12-07T15:55:22.754Z,92388.00
2018-12-07T15:57:52.724Z,92395.34
2018-12-07T16:00:23.748Z,92439.89
2018-12-07T16:02:53.374Z,92418.92
2018-12-07T16:05:23.868Z,92393.23
2018-12-07T16:07:54.223Z,92375.94
2018-12-07T16:10:24.033Z,92412.37
2018-12-07T16:12:53.479Z,92454.83
2018-12-07T16:15:23.759Z,92457.71
2018-12-07T16:17:53.851Z,92418.39
2018-12-07T16:20:23.150Z,92389.83
2018-12-07T16:22:55.467Z,92377.78
2018-12-07T16:25:24.970Z,92482.12
2018-12-07T16:27:54.266Z,92484.75
2018-12-07T16:30:23.800Z,92525.92
2018-12-07T16:32:54.159Z,92555.03
2018-12-07T16:35:24.322Z,92517.80
2018-12-07T16:37:54.561Z,92563.69
2018-12-07T16:40:24.182Z,92503.38
2018-12-07T16:42:54.899Z,92474.48
2018-12-07T16:45:25.015Z,92469.77
2018-12-07T16:47:54.746Z,92490.25
2018-12-07T16:50:25.290Z,92451.66
2018-12-07T16:52:55.248Z,92432.28
2018-12-07T16:55:25.434Z,92421.02
2018-12-07T16:57:55.221Z,92452.99
2018-12-07T17:00:25.128Z,92424.42
2018-12-07T17:02:54.783Z,92394.80
2018-12-07T17:05:25.107Z,92432.28
2018-12-07T17:07:55.397Z,92428.09
2018-12-07T17:10:26.581Z,92430.71
2018-12-07T17:12:55.921Z,92382.23
2018-12-07T17:15:25.227Z,92425.20
2018-12-07T17:17:54.612Z,92399.78
2018-12-07T17:20:24.186Z,92387.42
2018-12-07T17:22:53.585Z,92378.55
2018-12-07T17:25:23.369Z,92351.55
2018-12-07T17:27:52.898Z,92364.91
2018-12-07T17:30:24.340Z,92351.81
2018-12-07T17:32:53.913Z,92344.20
2018-12-07T17:35:23.296Z,92343.16
2018-12-07T17:37:52.684Z,92394.55
2018-12-07T17:40:22.688Z,92354.95
2018-12-07T17:42:52.643Z,92374.86
2018-12-07T17:45:22.714Z,92359.41
2018-12-07T17:47:52.246Z,92342.11
2018-12-07T17:50:22.403Z,92409.74
2018-12-07T17:52:52.045Z,92371.72
2018-12-07T17:55:21.535Z,92457.19
2018-12-07T17:57:51.359Z,92486.06
2018-12-07T18:00:21.075Z,92500.48
2018-12-07T18:02:50.593Z,92508.34
2018-12-07T18:05:20.383Z,92454.83
2018-12-07T18:07:50.162Z,92459.81
2018-12-07T18:10:21.137Z,92441.98
2018-12-07T18:12:50.699Z,92434.91
2018-12-07T18:15:20.966Z,92394.27
2018-12-07T18:17:50.612Z,92380.36
2018-12-07T18:20:21.123Z,92360.45
2018-12-07T18:22:50.519Z,92451.16
2018-12-07T18:25:19.976Z,92438.83
2018-12-07T18:27:49.568Z,92403.45
2018-12-07T18:30:19.002Z,92454.30
2018-12-07T18:32:48.505Z,92507.55
2018-12-07T18:35:17.910Z,92498.11
2018-12-07T18:37:48.591Z,92422.84
2018-12-07T18:40:18.188Z,92449.06
2018-12-07T18:42:48.530Z,92418.66
2018-12-07T18:45:18.248Z,92383.80
2018-12-07T18:47:47.681Z,92433.33
2018-12-07T18:50:17.291Z,92407.91
2018-12-07T18:52:46.809Z,92392.18
2018-12-07T18:55:18.773Z,92448.00
2018-12-07T18:57:48.420Z,92489.98
2018-12-07T19:00:17.989Z,92531.16
2018-12-07T19:02:47.532Z,92522.24
2018-12-07T19:05:17.029Z,92484.22
2018-12-07T19:07:47.189Z,92512.27
2018-12-07T19:10:17.433Z,92513.85
2018-12-07T19:12:47.875Z,92489.72
2018-12-07T19:15:17.398Z,92480.52
2018-12-07T19:17:46.974Z,92468.45
2018-12-07T19:20:16.247Z,92458.23
2018-12-07T19:22:45.757Z,92469.23
2018-12-07T19:25:15.119Z,92414.72
2018-12-07T19:27:44.491Z,92423.63
2018-12-07T19:30:14.753Z,92448.27
2018-12-07T19:32:44.891Z,92463.47
2018-12-07T19:35:15.476Z,92473.17
2018-12-07T19:37:45.489Z,92429.92
2018-12-07T19:40:15.059Z,92456.91
2018-12-07T19:42:50.191Z,92418.91
2018-12-07T19:45:21.004Z,92405.53
2018-12-07T19:47:51.237Z,92367.00
2018-12-07T19:52:44.072Z,92432.53
2018-12-07T19:55:13.471Z,92421.53
2018-12-07T19:57:43.504Z,92434.11
2018-12-07T20:00:14.068Z,92470.02
2018-12-07T20:02:44.808Z,92411.56
2018-12-07T20:05:14.402Z,92402.39
2018-12-07T20:07:44.605Z,92391.66
2018-12-07T20:10:13.841Z,92410.26
2018-12-07T20:12:43.880Z,92434.89
2018-12-07T20:15:13.278Z,92407.38
2018-12-07T20:17:42.521Z,92393.75
2018-12-07T20:20:11.923Z,92392.44
2018-12-07T20:22:41.361Z,92470.81
2018-12-07T20:25:12.434Z,92470.81
2018-12-07T20:27:41.853Z,92425.72
2018-12-07T20:30:11.832Z,92379.83
2018-12-07T20:32:43.160Z,92384.81
2018-12-07T20:35:12.638Z,92362.27
2018-12-07T20:37:42.091Z,92390.61
2018-12-07T20:40:11.946Z,92405.80
2018-12-07T20:42:41.246Z,92379.83
2018-12-07T20:46:13.725Z,92356.77
2018-12-07T20:48:43.074Z,92335.55
2018-12-07T20:51:12.353Z,92439.34
2018-12-07T20:53:41.951Z,92485.49
2018-12-07T20:56:11.639Z,92516.73
2018-12-07T20:58:41.200Z,92483.39
2018-12-07T21:01:10.610Z,92481.30
2018-12-07T21:04:53.727Z,92483.39
2018-12-07T21:08:05.776Z,92430.17
2018-12-07T21:11:00.790Z,92452.72
2018-12-07T21:14:12.143Z,92496.27
2018-12-07T21:17:45.575Z,92445.64
2018-12-07T21:20:24.673Z,92437.52
2018-12-07T21:22:54.380Z,92470.28
2018-12-07T21:25:24.251Z,92419.42
2018-12-07T21:27:54.008Z,92416.80
2018-12-07T21:30:58.707Z,92476.84
2018-12-07T21:34:18.947Z,92473.43
2018-12-07T21:36:48.555Z,92448.52
2018-12-07T21:39:24.061Z,92412.88
2018-12-07T21:41:53.377Z,92439.34
2018-12-07T21:44:22.681Z,92428.86
2018-12-07T21:46:53.588Z,92466.62
2018-12-07T21:49:23.937Z,92454.29
2018-12-07T21:52:04.536Z,92400.03
2018-12-07T21:54:34.077Z,92426.77
2018-12-07T21:57:03.774Z,92383.75
2018-12-07T21:59:33.420Z,92432.53
2018-12-07T22:02:03.193Z,92425.98
2018-12-07T22:04:33.396Z,92422.05
2018-12-07T22:07:03.131Z,92405.53
2018-12-07T22:09:32.541Z,92405.02
2018-12-07T22:12:02.224Z,92386.89
2018-12-07T22:14:33.108Z,92423.62
2018-12-07T22:17:03.439Z,92432.27
2018-12-07T22:19:32.707Z,92421.25
2018-12-07T22:22:02.232Z,92434.37
2018-12-07T22:24:32.112Z,92400.81
2018-12-07T22:27:02.474Z,92373.28
2018-12-07T22:29:33.209Z,92364.63
2018-12-07T22:32:03.308Z,92378.25
2018-12-07T22:34:32.993Z,92382.70
2018-12-07T22:37:03.358Z,92371.17
2018-12-07T22:39:33.899Z,92362.79
2018-12-07T22:42:03.690Z,92373.80
2018-12-07T22:44:33.203Z,92386.89
2018-12-07T22:47:02.613Z,92378.77
2018-12-07T22:49:32.992Z,92387.42
2018-12-07T22:52:02.271Z,92430.16
2018-12-07T22:54:31.561Z,92436.20
2018-12-07T22:57:01.334Z,92454.28
2018-12-07T22:59:30.655Z,92440.13
2018-12-07T23:02:00.210Z,92394.23
2018-12-07T23:04:29.713Z,92424.66
2018-12-07T23:06:59.050Z,92425.98
2018-12-07T23:09:28.552Z,92385.33
2018-12-07T23:11:58.033Z,92400.03
2018-12-07T23:14:27.225Z,92386.63
2018-12-07T23:16:56.870Z,92424.93
2018-12-07T23:19:26.110Z,92440.39
2018-12-07T23:21:55.338Z,92447.20
2018-12-07T23:24:24.913Z,92462.94
2018-12-07T23:26:54.115Z,92455.34
2018-12-07T23:29:23.654Z,92426.23
2018-12-07T23:31:52.931Z,92455.07
2018-12-07T23:34:22.200Z,92463.46
2018-12-07T23:36:51.462Z,92471.85
2018-12-07T23:39:20.682Z,92472.90
2018-12-07T23:41:49.923Z,92487.84
2018-12-07T23:44:19.219Z,92477.09
2018-12-07T23:46:49.458Z,92508.33
2018-12-07T23:49:19.224Z,92506.19
2018-12-07T23:51:52.392Z,92454.02
2018-12-07T23:54:22.122Z,92441.95
2018-12-07T23:56:51.350Z,92453.76
2018-12-07T23:59:21.613Z,92460.05
